メインページ
METAR-TAF:

METAR-TAF

空港 :

フジャイラ国際空港

フジャイラ, アラブ首長国連邦

緯度: 25-06N, 経度: 056-20E, 海抜: 28m

現時点の気象観測

当レポートは58分前の16:00(UTC)に作成
の風 2kt
気温 33°C
湿度 56%
気圧 1007 hPa
視程10km以上
高度4000ftの雲はほとんどない

METAR: OMFJ 261600Z 35002KT 9999 FEW040 33/23 Q1007 A2974

時間: 20:58 (16:58 UTC)

予報

当レポートは6時間0分前の10:58(UTC)に作成
予報は26日の 12時(UTC)から 27日の 18時(UTC)まで有効
の風 6kt
視程: 8000m
高度2500ftの雲はほとんどない
26日の 14時(UTC)から 26日の 16時(UTC)まで徐々に
26日の 19時(UTC)から 26日の 21時(UTC)まで一時的に
西/北西の風 5kt
27日の 05時(UTC)から 27日の 07時(UTC)まで徐々に
の風 7kt

TAF: OMFJ 261058Z 2612/2718 10006KT 8000 FEW025 BECMG 2614/2616 VRBO3KT NSC TEMPO 2619/2621 29005KT BECMG 2705/2707 08007KT

4,000以上の空港の気象観測と天気予報(METAR報とTAF報)

利用可能な観測所は地図上に黄色い丸と赤い丸で示す。

丸の上にカーソルを重ねると観測所名を参照できる。

次にクリックすると気象観測と天気予報を参照できる。

マップの切り替え:黒色「×」印の緑ボタンをクリックして拡大、「-」印の緑ボタンをクリックして縮小、緑色の三角印をクリックして隣りの地図に切り替え


METAR-TAF: